Flight Track Log - Related Links

Times and Time Zones

All times are in EDT time to prevent confusion due to time zone crossing. See the FSP564 flight status page for this flight to view local times or setup timezone preferences in your user account.

Time Position Orientation Groundspeed Altitude Reporting Facility
EDT Latitude Longitude Course Direction KTS MPH feet Rate Location/Type
Fri 03:30:15 PM 35.1561 -114.5694 239° Southwest  Level FlightAware Approximate
Fri 03:31:15 PM 35.1565 -114.6091 236° Southwest  Level FlightAware Approximate
Fri 03:32:15 PM 35.1568 -114.6488 231° Southwest  Level FlightAware Approximate
Fri 03:33:15 PM 35.1572 -114.6886 227° Southwest  Level FlightAware Approximate
Fri 03:34:15 PM 35.1576 -114.7283 221° Southwest  Level FlightAware Approximate
Fri 03:35:15 PM 35.1583 -114.7680 213° Southwest  Level FlightAware Approximate
Fri 03:36:15 PM 35.1590 -114.8077 205° Southwest  Level FlightAware Approximate
Fri 03:37:15 PM 35.1622 -114.8473 195° South  Level FlightAware Approximate
Fri 03:38:15 PM 35.1655 -114.8868 184° South  Level FlightAware Approximate
Fri 03:39:15 PM 35.1708 -114.9260 174° South  Level FlightAware Approximate
Fri 03:40:15 PM 35.1762 -114.9652 164° South  Level FlightAware Approximate
Fri 03:41:15 PM 35.1815 -115.0044 156° South  Level FlightAware Approximate
Fri 03:42:15 PM 35.1869 -115.0436 149° Southeast  Level FlightAware Approximate
Fri 03:43:15 PM 35.1962 -115.0817 144° Southeast  Level FlightAware Approximate
Fri 03:44:15 PM 35.2056 -115.1198 140° Southeast  Level FlightAware Approximate
Fri 03:45:15 PM 35.2150 -115.1578 137° Southeast  Level FlightAware Approximate
Fri 03:46:15 PM 35.2243 -115.1959 134° Southeast  Level FlightAware Approximate
Fri 03:47:15 PM 35.2336 -115.2340 132° Southeast  Level FlightAware Approximate
Fri 03:48:11 PM 34.9917 -114.9017 240° Southwest 129 148 8,500  Level Los Angeles Center
Fri 03:49:11 PM 34.9772 -114.9322 235° Southwest 119 137 8,600 50 Climbing Los Angeles Center
Fri 03:50:11 PM 34.9567 -114.9681 242° Southwest 124 143 8,600  Level Los Angeles Center
Fri 03:51:11 PM 34.9403 -115.0064 241° Southwest 124 143 8,600  Level Los Angeles Center
Fri 03:52:11 PM 34.9239 -115.0419 235° Southwest 124 143 8,600  Level Los Angeles Center
Fri 03:53:11 PM 34.9033 -115.0778 242° Southwest 124 143 8,600 -50 Level Los Angeles Center
Fri 03:54:11 PM 34.8869 -115.1158 238° Southwest 124 143 8,500  Descending Los Angeles Center
Fri 03:55:11 PM 34.8686 -115.1517 242° Southwest 124 143 8,600 50 Climbing Los Angeles Center
Fri 03:56:11 PM 34.8522 -115.1897 241° Southwest 124 143 8,600  Level Los Angeles Center
Fri 03:57:11 PM 34.8358 -115.2253 230° Southwest 124 143 8,600  Level Los Angeles Center
Fri 03:58:11 PM 34.8108 -115.2611 249° West 124 143 8,600 -50 Level Los Angeles Center
Fri 03:59:11 PM 34.7986 -115.2992 246° West 135 155 8,500 -50 Descending Los Angeles Center
Fri 04:00:11 PM 34.7844 -115.3372 263° West 135 155 8,500  Level Los Angeles Center
Fri 04:01:11 PM 34.7806 -115.3778 260° West 130 150 8,500  Level Los Angeles Center
Fri 04:02:11 PM 34.7744 -115.4183 260° West 125 144 8,500  Level Los Angeles Center
Fri 04:03:11 PM 34.7683 -115.4611 261° West 125 144 8,500  Level Los Angeles Center
Fri 04:04:11 PM 34.7625 -115.5069 263° West 125 144 8,500  Level Los Angeles Center
Fri 04:05:11 PM 34.7583 -115.5497 258° West 130 150 8,500  Level Los Angeles Center
Fri 04:06:11 PM 34.7503 -115.5978 262° West 130 150 8,500  Level Los Angeles Center
Fri 04:07:11 PM 34.7461 -115.6358 260° West 130 150 8,500 -50 Level Los Angeles Center
Fri 04:08:11 PM 34.7381 -115.6889 281° West 137 158 8,400 -33 Descending Los Angeles Center
Fri 04:10:11 PM 34.7508 -115.7725 280° West 142 163 8,400  Level Los Angeles Center
Fri 04:11:11 PM 34.7572 -115.8178 280° West 142 163 8,400  Level Los Angeles Center
Fri 04:12:11 PM 34.7636 -115.8608 284° West 142 163 8,400  Level Los Angeles Center
Fri 04:13:11 PM 34.7719 -115.9011 280° West 136 157 8,400  Level Los Angeles Center
Fri 04:14:11 PM 34.7783 -115.9442 270° West 136 157 8,400 50 Level Los Angeles Center
Fri 04:15:11 PM 34.7783 -115.9822 270° West 124 143 8,500 50 Climbing Los Angeles Center
Fri 04:16:11 PM 34.7783 -116.0225 271° West 124 143 8,500  Level Los Angeles Center
Fri 04:17:11 PM 34.7786 -116.0606 266° West 124 143 8,500  Level Los Angeles Center
Fri 04:18:11 PM 34.7764 -116.1011 270° West 124 143 8,500  Level Los Angeles Center
Fri 04:19:11 PM 34.7764 -116.1389 277° West 124 143 8,500  Level Los Angeles Center
Fri 04:20:11 PM 34.7806 -116.1794 259° West 124 143 8,500  Level Los Angeles Center
Fri 04:21:11 PM 34.7742 -116.2200 274° West 124 143 8,500  Level Los Angeles Center
Fri 04:22:11 PM 34.7764 -116.2628 270° West 124 143 8,500  Level Los Angeles Center
Fri 04:23:11 PM 34.7764 -116.3033 266° West 124 143 8,500  Level Los Angeles Center
Fri 04:24:11 PM 34.7742 -116.3464 270° West 124 143 8,500  Level Los Angeles Center
Fri 04:25:11 PM 34.7742 -116.3842 270° West 124 143 8,500  Level Los Angeles Center
Fri 04:26:11 PM 34.7739 -116.4272 270° West 124 143 8,500  Level Los Angeles Center
Fri 04:27:11 PM 34.7739 -116.4653 270° West 119 137 8,500  Level Los Angeles Center
Fri 04:28:10 PM 34.7736 -116.5031 266° West 119 137 8,500  Level Los Angeles Center
Fri 04:29:10 PM 34.7714 -116.5411 270° West 119 137 8,500  Level Los Angeles Center
Fri 04:30:11 PM 34.7714 -116.5789 270° West 119 137 8,500  Level Los Angeles Center
Fri 04:31:11 PM 34.7711 -116.6219 266° West 125 144 8,500  Level Los Angeles Center
Fri 04:32:11 PM 34.7689 -116.6597 273° West 125 144 8,500  Level Los Angeles Center
Fri 04:33:11 PM 34.7708 -116.7053 270° West 125 144 8,500  Level Los Angeles Center
Fri 04:34:11 PM 34.7706 -116.7483 266° West 125 144 8,500  Level Los Angeles Center
Fri 04:35:11 PM 34.7683 -116.7914 270° West 125 144 8,500  Level Los Angeles Center
Fri 04:36:11 PM 34.7681 -116.8369 270° West 125 144 8,500  Level Los Angeles Center
Fri 04:37:11 PM 34.7678 -116.8797 270° West 125 144 8,500  Level Los Angeles Center
Fri 04:38:10 PM 34.7675 -116.9228 270° West 125 144 8,500  Level Los Angeles Center
Fri 04:39:11 PM 34.7672 -116.9658 270° West 125 144 8,500  Level Los Angeles Center
Fri 04:40:11 PM 34.7669 -117.0064 267° West 125 144 8,500 -46 Level Los Angeles Center
Fri 04:41:22 PM 34.7644 -117.0619 270° West 130 150 8,400 -46 Descending Los Angeles Center
Fri 04:42:22 PM 34.7642 -117.1047 268° West 130 150 8,400 33 Level Los Angeles Center
Fri 04:44:22 PM 34.7614 -117.1908 269° West 130 150 8,500 33 Climbing Los Angeles Center
Fri 04:45:22 PM 34.7608 -117.2311 270° West 130 150 8,500  Level Los Angeles Center
Fri 04:46:22 PM 34.7606 -117.2767 269° West 130 150 8,500  Level Los Angeles Center
Fri 04:47:23 PM 34.7600 -117.3197 270° West 130 150 8,500  Level Los Angeles Center
Fri 04:48:22 PM 34.7597 -117.3603 269° West 130 150 8,500  Level Los Angeles Center
Fri 04:49:23 PM 34.7592 -117.4006 266° West 130 150 8,500  Level Los Angeles Center
Fri 04:50:23 PM 34.7567 -117.4461 269° West 130 150 8,500  Level Los Angeles Center
Fri 04:51:23 PM 34.7561 -117.4892 270° West 125 144 8,500  Level Los Angeles Center
Fri 04:52:23 PM 34.7558 -117.5319 269° West 125 144 8,500  Level Los Angeles Center
Fri 04:53:23 PM 34.7553 -117.5750 269° West 125 144 8,500  Level Los Angeles Center
Fri 04:54:23 PM 34.7547 -117.6156 266° West 125 144 8,500  Level Los Angeles Center
Fri 04:55:23 PM 34.7522 -117.6583 269° West 125 144 8,500  Level Los Angeles Center
Fri 04:56:22 PM 34.7514 -117.7039 269° West 125 144 8,500  Level Los Angeles Center
Fri 04:57:22 PM 34.7508 -117.7469 269° West 125 144 8,500  Level Los Angeles Center
Fri 04:58:22 PM 34.7503 -117.7922 308° West 125 144 8,500  Level Los Angeles Center
Fri 05:06:15 PM 34.9250 -118.0535 308° West  Level FlightAware Approximate
Fri 05:07:15 PM 34.9472 -118.0867 308° West  Level FlightAware Approximate
Fri 05:08:15 PM 34.9693 -118.1200 308° West  Level FlightAware Approximate
Fri 05:09:15 PM 34.9914 -118.1532 308° West  Level FlightAware Approximate
Fri 05:10:15 PM 35.0135 -118.1865 308° West  Level FlightAware Approximate
Fri 05:11:15 PM 35.0356 -118.2198 308° West  Level FlightAware Approximate
Fri 05:12:15 PM 35.0577 -118.2531 308° West  Level FlightAware Approximate
Fri 05:13:15 PM 35.0798 -118.2865 308° West  Level FlightAware Approximate
Fri 05:14:15 PM 35.1018 -118.3198 308° West  Level FlightAware Approximate
Fri 05:15:15 PM 35.1239 -118.3532 308° West  Level FlightAware Approximate
Fri 05:16:15 PM 35.1459 -118.3866 308° West  Level FlightAware Approximate
Fri 05:17:15 PM 35.1680 -118.4200 308° West  Level FlightAware Approximate
Fri 05:18:15 PM 35.1900 -118.4534 308° West  Level FlightAware Approximate
Fri 05:19:15 PM 35.2120 -118.4868 308° West  Level FlightAware Approximate
Fri 05:20:15 PM 35.2342 -118.5201 307° West  Level FlightAware Approximate
Fri 05:21:15 PM 35.2564 -118.5533 307° West  Level FlightAware Approximate
Fri 05:22:15 PM 35.2786 -118.5866 307° West  Level FlightAware Approximate
Fri 05:23:15 PM 35.3008 -118.6199 307° West  Level FlightAware Approximate
Fri 05:24:15 PM 35.3230 -118.6532 307° West  Level FlightAware Approximate
Fri 05:25:15 PM 35.3452 -118.6866 307° West  Level FlightAware Approximate
Fri 05:26:15 PM 35.3674 -118.7199 307° West  Level FlightAware Approximate
Fri 05:27:15 PM 35.3895 -118.7533 307° West  Level FlightAware Approximate
Fri 05:28:15 PM 35.4117 -118.7867 307° West  Level FlightAware Approximate
Fri 05:29:15 PM 35.4338 -118.8201 307° West  Level FlightAware Approximate
Fri 05:30:15 PM 35.4560 -118.8535 307° West  Level FlightAware Approximate
Fri 05:31:15 PM 35.4781 -118.8870 307° West  Level FlightAware Approximate
Fri 05:32:15 PM 35.5002 -118.9205 307° West  Level FlightAware Approximate
Fri 05:33:15 PM 35.5223 -118.9539 307° West  Level FlightAware Approximate
Fri 05:34:15 PM 35.5444 -118.9874 307° West  Level FlightAware Approximate
Fri 05:35:15 PM 35.5665 -119.0210 307° West  Level FlightAware Approximate
Fri 05:36:15 PM 35.5885 -119.0545 306° West  Level FlightAware Approximate
Fri 05:37:15 PM 35.6106 -119.0881 306° West  Level FlightAware Approximate
Fri 05:38:15 PM 35.6327 -119.1217 306° West  Level FlightAware Approximate
Fri 05:39:15 PM 35.6547 -119.1553 306° West  Level FlightAware Approximate
Fri 05:40:15 PM 35.6768 -119.1889 306° West  Level FlightAware Approximate
Fri 05:41:15 PM 35.6988 -119.2225 306° West  Level FlightAware Approximate
Fri 05:42:15 PM 35.7208 -119.2562 306° West  Level FlightAware Approximate
Fri 05:43:15 PM 35.7428 -119.2898 306° West  Level FlightAware Approximate
Fri 05:44:15 PM 35.7648 -119.3235 306° West  Level FlightAware Approximate
Fri 05:45:15 PM 35.7868 -119.3572 306° West  Level FlightAware Approximate
Fri 05:46:15 PM 35.8088 -119.3910 306° West  Level FlightAware Approximate
Fri 05:47:15 PM 35.8308 -119.4247 305° West  Level FlightAware Approximate
Fri 05:48:15 PM 35.8527 -119.4585 305° West  Level FlightAware Approximate
Fri 05:49:15 PM 35.8747 -119.4923 305° West  Level FlightAware Approximate
Fri 05:50:15 PM 35.8966 -119.5261 305° West  Level FlightAware Approximate
Fri 05:51:15 PM 35.9185 -119.5599 305° West  Level FlightAware Approximate
Fri 05:52:15 PM 35.9405 -119.5937 305° West  Level FlightAware Approximate
Fri 05:53:15 PM 35.9624 -119.6276 304° West  Level FlightAware Approximate
Fri 05:54:15 PM 35.9843 -119.6615 304° West  Level FlightAware Approximate
Fri 05:55:15 PM 36.0062 -119.6954 304° West  Level FlightAware Approximate
Fri 05:56:15 PM 36.0281 -119.7293 304° West  Level FlightAware Approximate
Fri 05:57:15 PM 36.0500 -119.7632 304° West  Level FlightAware Approximate
Fri 05:58:15 PM 36.0718 -119.7971 303° West  Level FlightAware Approximate
Fri 05:59:15 PM 36.0937 -119.8311 303° West  Level FlightAware Approximate
Fri 06:00:15 PM 36.1156 -119.8651 303° West  Level FlightAware Approximate
Fri 06:01:15 PM 36.1374 -119.8991 302° West  Level FlightAware Approximate
Fri 06:02:15 PM 36.1592 -119.9331 302° West  Level FlightAware Approximate
Fri 06:03:15 PM 36.1810 -119.9672 301° West  Level FlightAware Approximate
Fri 06:04:15 PM 36.2029 -120.0013 301° West  Level FlightAware Approximate
Fri 06:05:15 PM 36.2247 -120.0353 300° West  Level FlightAware Approximate
Fri 06:06:15 PM 36.2464 -120.0694 300° West  Level FlightAware Approximate
Fri 06:07:15 PM 36.2682 -120.1036 299° West  Level FlightAware Approximate
Fri 06:08:15 PM 36.2900 -120.1377 298° West  Level FlightAware Approximate
Fri 06:09:15 PM 36.3117 -120.1719 297° West  Level FlightAware Approximate
Fri 06:10:15 PM 36.3335 -120.2060 295° West  Level FlightAware Approximate
Fri 06:11:15 PM 36.3552 -120.2402 293° West  Level FlightAware Approximate
Fri 06:12:15 PM 36.3770 -120.2745 291° West  Level FlightAware Approximate
Fri 06:13:15 PM 36.3987 -120.3087 287° West  Level FlightAware Approximate
Fri 06:14:15 PM 36.4204 -120.3430 282° West  Level FlightAware Approximate
Fri 06:15:15 PM 36.4421 -120.3772 274° West  Level FlightAware Approximate
Fri 06:16:15 PM 36.4638 -120.4115 261° West  Level FlightAware Approximate
Fri 06:17:15 PM 36.4855 -120.4458 238° Southwest  Level FlightAware Approximate
Fri 06:18:15 PM 36.5071 -120.4802 207° Southwest  Level FlightAware Approximate
Fri 06:19:15 PM 36.5288 -120.5145 181° South  Level FlightAware Approximate
Fri 06:20:15 PM 36.5505 -120.5489 166° South  Level FlightAware Approximate
Fri 06:21:15 PM 36.5721 -120.5833 156° South  Level FlightAware Approximate
Fri 06:22:15 PM 36.5937 -120.6177 151° Southeast  Level FlightAware Approximate
Fri 06:23:15 PM 36.6154 -120.6521 147° Southeast  Level FlightAware Approximate
Fri 06:24:15 PM 36.6370 -120.6866 144° Southeast  Level FlightAware Approximate
Fri 06:25:08 PM 36.4500 -120.5167 321° Northwest 132 152 8,500  Level Northern Cal TRACON
Fri 06:26:09 PM 36.4833 -120.5500 302° West 134 154 8,500  Level Northern Cal TRACON
Fri 06:27:09 PM 36.5000 -120.5833 321° Northwest 130 150 8,500  Level Northern Cal TRACON
Fri 06:28:16 PM 36.5333 -120.6167 302° West 128 147 8,500  Level Northern Cal TRACON
Fri 06:29:10 PM 36.5500 -120.6500 302° West 130 150 8,500  Level Northern Cal TRACON
Fri 06:30:11 PM 36.5667 -120.6833 321° Northwest 134 154 8,500  Level Northern Cal TRACON
Fri 06:31:11 PM 36.6000 -120.7167 302° West 131 151 8,500  Level Northern Cal TRACON
Fri 06:32:11 PM 36.6167 -120.7500 302° West 127 146 8,500  Level Northern Cal TRACON
Fri 06:33:12 PM 36.6333 -120.7833 321° Northwest 120 138 8,500  Level Northern Cal TRACON
Fri 06:34:12 PM 36.6667 -120.8167 302° West 131 151 8,500  Level Northern Cal TRACON
Fri 06:35:07 PM 36.6833 -120.8500 321° Northwest 133 153 8,500  Level Northern Cal TRACON
Fri 06:36:13 PM 36.7167 -120.8833 302° West 129 148 8,500  Level Northern Cal TRACON
Fri 06:37:07 PM 36.7333 -120.9167 310° West 136 157 8,500 -52 Level Northern Cal TRACON
Fri 06:38:08 PM 36.7667 -120.9667 302° West 136 157 8,400  Descending Northern Cal TRACON
Fri 06:39:08 PM 36.7833 -121.0000 302° West 133 153 8,500 50 Climbing Northern Cal TRACON
Fri 06:40:08 PM 36.8000 -121.0333 321° Northwest 133 153 8,500  Level Northern Cal TRACON
Fri 06:41:14 PM 36.8333 -121.0667 302° West 134 154 8,500  Level Northern Cal TRACON
Fri 06:42:14 PM 36.8500 -121.1000 321° Northwest 135 155 8,500  Level Northern Cal TRACON
Fri 06:43:08 PM 36.8833 -121.1333 302° West 132 152 8,500  Level Northern Cal TRACON
Fri 06:44:08 PM 36.9000 -121.1667 321° Northwest 134 154 8,500 -100 Level Northern Cal TRACON
Fri 06:45:08 PM 36.9333 -121.2000 293° West 138 159 8,300 -250 Descending Northern Cal TRACON
Fri 06:46:08 PM 36.9500 -121.2500 321° Northwest 142 163 8,000 -300 Descending Northern Cal TRACON
Fri 06:47:08 PM 36.9833 -121.2833 302° West 143 165 7,700 -300 Descending Northern Cal TRACON
Fri 06:48:08 PM 37.0000 -121.3167 293° West 141 162 7,400 -298 Descending Northern Cal TRACON
Fri 06:49:09 PM 37.0167 -121.3667 293° West 147 169 7,100 -347 Descending Northern Cal TRACON
Fri 06:50:09 PM 37.0333 -121.4167 270° West 143 165 6,700 -450 Descending Northern Cal TRACON
Fri 06:51:09 PM 37.0333 -121.4667 321° Northwest 145 167 6,200 -450 Descending Northern Cal TRACON
Fri 06:52:09 PM 37.0667 -121.5000 293° West 143 165 5,800 -450 Descending Northern Cal TRACON
Fri 06:53:09 PM 37.0833 -121.5500 338° Northwest 146 168 5,300 -365 Descending Northern Cal TRACON
Fri 06:54:04 PM 37.1167 -121.5667 321° Northwest 138 159 5,100 -300 Descending Northern Cal TRACON
Fri 06:55:09 PM 37.1500 -121.6000 302° West 137 158 4,700 -429 Descending Northern Cal TRACON
Fri 06:56:10 PM 37.1667 -121.6333 321° Northwest 141 162 4,200 -446 Descending Northern Cal TRACON
Fri 06:57:10 PM 37.2000 -121.6667 310° West 141 162 3,800 -550 Descending Northern Cal TRACON
Fri 06:58:10 PM 37.2333 -121.7167 321° Northwest 136 157 3,100 -750 Descending Northern Cal TRACON
Fri 06:59:10 PM 37.2500 -121.7333 321° Northwest 124 143 2,300 -694 Descending Northern Cal TRACON
Fri 07:00:11 PM 37.2833 -121.7667 322° Northwest 116 133 1,700 -595 Descending Northern Cal TRACON
Fri 07:01:11 PM 37.3000 -121.7833 322° Northwest 95 109 1,100 -500 Descending Northern Cal TRACON
Fri 07:02:11 PM 37.3167 -121.8000 322° Northwest 78 90 700 -400 Descending Northern Cal TRACON

Login

Don't have an account? Register now (free) for customized features, flight alerts, and more!